createdAt,value
2018-04-25T00:01:12.686Z,1019.56
2018-04-25T00:02:13.266Z,1019.52
2018-04-25T00:03:13.846Z,1019.52
2018-04-25T00:04:14.473Z,1019.47
2018-04-25T00:05:59.565Z,1019.53
2018-04-25T00:07:00.144Z,1019.48
2018-04-25T00:08:00.723Z,1019.57
2018-04-25T00:09:01.302Z,1019.58
2018-04-25T00:10:46.391Z,1019.56
2018-04-25T00:11:47.024Z,1019.52
2018-04-25T00:12:47.597Z,1019.59
2018-04-25T00:13:48.175Z,1019.60
2018-04-25T00:15:33.267Z,1019.53
2018-04-25T00:16:33.844Z,1019.50
2018-04-25T00:17:34.421Z,1019.52
2018-04-25T00:18:35.001Z,1019.51
2018-04-25T00:20:20.142Z,1019.52
2018-04-25T00:21:20.720Z,1019.45
2018-04-25T00:22:21.298Z,1019.49
2018-04-25T00:23:21.925Z,1019.49
2018-04-25T00:25:07.016Z,1019.47
2018-04-25T00:26:07.594Z,1019.47
2018-04-25T00:27:08.171Z,1019.42
2018-04-25T00:28:08.750Z,1019.47
2018-04-25T00:29:53.844Z,1019.45
2018-04-25T00:30:54.424Z,1019.54
2018-04-25T00:31:55.050Z,1019.44
2018-04-25T00:32:55.627Z,1019.51
2018-04-25T00:34:40.720Z,1019.48
2018-04-25T00:35:41.299Z,1019.45
2018-04-25T00:36:41.915Z,1019.48
2018-04-25T00:37:42.513Z,1019.47
2018-04-25T00:39:27.637Z,1019.50
2018-04-25T00:40:28.215Z,1019.40
2018-04-25T00:41:28.791Z,1019.46
2018-04-25T00:42:29.373Z,1019.40
2018-04-25T00:44:14.507Z,1019.50
2018-04-25T00:45:15.137Z,1019.45
2018-04-25T00:46:15.714Z,1019.50
2018-04-25T00:47:16.290Z,1019.42
2018-04-25T00:49:01.584Z,1019.42
2018-04-25T00:50:02.164Z,1019.49
2018-04-25T00:51:02.746Z,1019.44
2018-04-25T00:52:03.357Z,1019.41
2018-04-25T00:53:48.449Z,1019.44
2018-04-25T00:54:49.026Z,1019.38
2018-04-25T00:55:49.605Z,1019.38
2018-04-25T00:56:50.184Z,1019.39
2018-04-25T00:58:35.387Z,1019.34
2018-04-25T00:59:35.906Z,1019.31
2018-04-25T01:00:36.534Z,1019.29
2018-04-25T01:01:37.112Z,1019.28
2018-04-25T01:03:22.251Z,1019.20
2018-04-25T01:04:22.828Z,1019.31
2018-04-25T01:05:23.405Z,1019.31
2018-04-25T01:06:23.983Z,1019.24
2018-04-25T01:08:09.125Z,1019.24
2018-04-25T01:09:09.704Z,1019.29
2018-04-25T01:10:10.282Z,1019.28
2018-04-25T01:11:10.860Z,1019.22
2018-04-25T01:12:55.950Z,1019.24
2018-04-25T01:13:56.530Z,1019.18
2018-04-25T01:14:57.159Z,1019.14
2018-04-25T01:15:57.737Z,1019.19
2018-04-25T01:17:42.830Z,1019.14
2018-04-25T01:18:43.410Z,1019.14
2018-04-25T01:19:43.986Z,1019.12
2018-04-25T01:20:44.567Z,1019.08
2018-04-25T01:22:29.657Z,1019.06
2018-04-25T01:23:30.285Z,1019.05
2018-04-25T01:24:31.062Z,1019.11
2018-04-25T01:25:31.678Z,1019.02
2018-04-25T01:27:16.729Z,1019.08
2018-04-25T01:28:17.308Z,1019.05
2018-04-25T01:29:17.887Z,1019.13
2018-04-25T01:30:18.470Z,1019.04
2018-04-25T01:32:03.556Z,1019.08
2018-04-25T01:33:04.135Z,1019.08
2018-04-25T01:34:04.714Z,1019.17
2018-04-25T01:35:05.294Z,1019.12
2018-04-25T01:36:50.475Z,1019.05
2018-04-25T01:37:51.055Z,1019.11
2018-04-25T01:38:51.682Z,1019.11
2018-04-25T01:39:52.299Z,1019.17
2018-04-25T01:41:37.390Z,1019.12
2018-04-25T01:42:37.968Z,1019.14
2018-04-25T01:43:38.749Z,1019.20
2018-04-25T01:44:39.321Z,1019.14
2018-04-25T01:46:24.414Z,1019.13
2018-04-25T01:47:24.993Z,1019.17
2018-04-25T01:48:25.572Z,1019.16
2018-04-25T01:49:26.155Z,1019.13
2018-04-25T01:51:11.243Z,1019.06
2018-04-25T01:52:11.823Z,1019.06
2018-04-25T01:53:12.404Z,1019.00
2018-04-25T01:54:13.070Z,1019.13
2018-04-25T01:55:58.161Z,1019.10
2018-04-25T01:56:58.740Z,1019.07
2018-04-25T01:57:59.320Z,1019.07
2018-04-25T01:58:59.947Z,1019.06
2018-04-25T02:00:45.088Z,1019.03
2018-04-25T02:01:45.667Z,1019.10
2018-04-25T02:02:46.245Z,1018.98
2018-04-25T02:03:46.823Z,1019.05
2018-04-25T02:05:31.913Z,1019.11
2018-04-25T02:06:32.491Z,1019.01
2018-04-25T02:07:33.070Z,1019.00
2018-04-25T02:08:33.649Z,1018.96
2018-04-25T02:10:18.742Z,1018.97
2018-04-25T02:11:19.318Z,1019.00
2018-04-25T02:12:19.897Z,1018.97
2018-04-25T02:13:20.476Z,1018.95
2018-04-25T02:15:05.666Z,1018.84
2018-04-25T02:16:06.248Z,1018.93
2018-04-25T02:17:06.872Z,1018.98
2018-04-25T02:18:07.513Z,1018.96
2018-04-25T02:19:52.538Z,1019.06
2018-04-25T02:20:53.119Z,1018.97
2018-04-25T02:21:53.695Z,1019.00
2018-04-25T02:22:54.273Z,1018.98
2018-04-25T02:24:39.363Z,1019.07
2018-04-25T02:25:39.942Z,1019.04
2018-04-25T02:26:40.519Z,1019.02
2018-04-25T02:27:41.099Z,1019.03
2018-04-25T02:29:26.239Z,1019.04
2018-04-25T02:30:26.820Z,1019.02
2018-04-25T02:31:27.393Z,1019.10
2018-04-25T02:32:27.970Z,1019.01
2018-04-25T02:34:13.110Z,1019.12
2018-04-25T02:35:13.688Z,1019.15
2018-04-25T02:36:14.313Z,1019.14
2018-04-25T02:37:14.941Z,1019.16
2018-04-25T02:39:00.033Z,1019.19
2018-04-25T02:40:00.611Z,1019.25
2018-04-25T02:41:01.189Z,1019.19
2018-04-25T02:42:01.771Z,1019.23
2018-04-25T02:43:46.903Z,1019.16
2018-04-25T02:44:47.521Z,1019.14
2018-04-25T02:45:48.100Z,1019.10
2018-04-25T02:46:48.720Z,1019.11
2018-04-25T02:48:33.813Z,1019.18
2018-04-25T02:49:34.391Z,1019.17
2018-04-25T02:50:34.970Z,1019.17
2018-04-25T02:51:35.597Z,1019.20
2018-04-25T02:53:20.738Z,1019.27
2018-04-25T02:54:21.316Z,1019.27
2018-04-25T02:55:21.944Z,1019.31
2018-04-25T02:56:22.522Z,1019.36
2018-04-25T02:58:07.612Z,1019.33
2018-04-25T02:59:08.191Z,1019.31
2018-04-25T03:00:08.776Z,1019.33
2018-04-25T03:01:09.389Z,1019.35
2018-04-25T03:02:54.479Z,1019.32
2018-04-25T03:03:55.058Z,1019.35
2018-04-25T03:04:55.635Z,1019.38
2018-04-25T03:05:56.214Z,1019.33
2018-04-25T03:07:41.360Z,1019.31
2018-04-25T03:08:41.976Z,1019.32
2018-04-25T03:09:42.553Z,1019.32
2018-04-25T03:10:43.132Z,1019.36
2018-04-25T03:12:28.318Z,1019.25
2018-04-25T03:13:28.944Z,1019.31
2018-04-25T03:14:29.524Z,1019.26
2018-04-25T03:15:30.097Z,1019.15
2018-04-25T03:17:15.187Z,1019.21
2018-04-25T03:18:15.767Z,1019.23
2018-04-25T03:19:16.344Z,1019.29
2018-04-25T03:20:16.923Z,1019.25
2018-04-25T03:22:02.015Z,1019.23
2018-04-25T03:23:02.634Z,1019.29
2018-04-25T03:24:03.211Z,1019.21
2018-04-25T03:25:03.790Z,1019.26
2018-04-25T03:26:48.882Z,1019.34
2018-04-25T03:27:49.611Z,1019.24
2018-04-25T03:28:50.189Z,1019.33
2018-04-25T03:29:50.765Z,1019.22
2018-04-25T03:31:35.957Z,1019.33
2018-04-25T03:32:36.535Z,1019.35
2018-04-25T03:33:37.118Z,1019.37
2018-04-25T03:34:37.691Z,1019.39
2018-04-25T03:36:22.780Z,1019.33
2018-04-25T03:37:23.359Z,1019.33
2018-04-25T03:38:23.938Z,1019.30
2018-04-25T03:39:24.516Z,1019.32
2018-04-25T03:41:09.622Z,1019.28
2018-04-25T03:42:10.183Z,1019.38
2018-04-25T03:43:10.761Z,1019.32
2018-04-25T03:44:11.339Z,1019.28
2018-04-25T03:45:56.431Z,1019.28
2018-04-25T03:46:57.010Z,1019.28
2018-04-25T03:47:57.637Z,1019.35
2018-04-25T03:48:58.264Z,1019.26
2018-04-25T03:50:43.362Z,1019.31
2018-04-25T03:51:43.935Z,1019.35
2018-04-25T03:52:44.513Z,1019.40
2018-04-25T03:53:45.141Z,1019.45
2018-04-25T03:55:30.229Z,1019.49
2018-04-25T03:56:30.808Z,1019.44
2018-04-25T03:57:31.386Z,1019.45
2018-04-25T03:58:31.965Z,1019.50
2018-04-25T04:00:17.055Z,1019.51
2018-04-25T04:01:17.633Z,1019.53
2018-04-25T04:02:18.210Z,1019.47
2018-04-25T04:03:18.789Z,1019.45
2018-04-25T04:05:03.929Z,1019.43
2018-04-25T04:06:04.509Z,1019.42
2018-04-25T04:07:05.083Z,1019.45
2018-04-25T04:08:05.663Z,1019.50
2018-04-25T04:09:50.753Z,1019.50
2018-04-25T04:10:51.382Z,1019.52
2018-04-25T04:11:51.959Z,1019.57
2018-04-25T04:12:52.586Z,1019.51
2018-04-25T04:14:37.626Z,1019.45
2018-04-25T04:15:38.205Z,1019.48
2018-04-25T04:16:38.782Z,1019.54
2018-04-25T04:17:39.362Z,1019.44
2018-04-25T04:19:24.452Z,1019.51
2018-04-25T04:20:25.031Z,1019.57
2018-04-25T04:21:25.657Z,1019.59
2018-04-25T04:22:26.288Z,1019.59
2018-04-25T04:24:11.416Z,1019.59
2018-04-25T04:25:11.994Z,1019.57
2018-04-25T04:26:12.622Z,1019.61
2018-04-25T04:27:13.200Z,1019.59
2018-04-25T04:28:58.290Z,1019.60
2018-04-25T04:29:58.869Z,1019.57
2018-04-25T04:30:59.447Z,1019.64
2018-04-25T04:32:00.025Z,1019.61
2018-04-25T04:33:45.115Z,1019.63
2018-04-25T04:34:45.693Z,1019.63
2018-04-25T04:35:46.269Z,1019.67
2018-04-25T04:36:46.848Z,1019.60
2018-04-25T04:38:31.989Z,1019.60
2018-04-25T04:39:32.620Z,1019.56
2018-04-25T04:40:33.196Z,1019.67
2018-04-25T04:41:33.769Z,1019.60
2018-04-25T04:43:18.925Z,1019.62
2018-04-25T04:44:19.438Z,1019.59
2018-04-25T04:45:20.015Z,1019.59
2018-04-25T04:46:20.594Z,1019.55
2018-04-25T04:48:05.685Z,1019.56
2018-04-25T04:49:06.264Z,1019.63
2018-04-25T04:50:06.840Z,1019.53
2018-04-25T04:51:07.417Z,1019.58
2018-04-25T04:52:52.508Z,1019.64
2018-04-25T04:53:53.089Z,1019.60
2018-04-25T04:54:53.706Z,1019.66
2018-04-25T04:55:54.283Z,1019.60
2018-04-25T04:57:39.424Z,1019.60
2018-04-25T04:58:40.051Z,1019.68
2018-04-25T04:59:40.738Z,1019.67
2018-04-25T05:00:41.254Z,1019.67
2018-04-25T05:02:26.347Z,1019.63
2018-04-25T05:03:26.927Z,1019.61
2018-04-25T05:04:27.503Z,1019.71
2018-04-25T05:05:28.081Z,1019.69
2018-04-25T05:07:13.172Z,1019.73
2018-04-25T05:08:13.762Z,1019.81
2018-04-25T05:09:14.328Z,1019.77
2018-04-25T05:10:14.908Z,1019.78
2018-04-25T05:12:00.045Z,1019.70
2018-04-25T05:13:00.660Z,1019.77
2018-04-25T05:14:01.200Z,1019.90
2018-04-25T05:15:01.781Z,1019.79
2018-04-25T05:16:46.960Z,1019.82
2018-04-25T05:17:47.589Z,1019.87
2018-04-25T05:18:48.165Z,1019.90
2018-04-25T05:19:48.746Z,1019.82
2018-04-25T05:21:33.833Z,1019.82
2018-04-25T05:22:34.411Z,1019.83
2018-04-25T05:23:34.989Z,1019.86
2018-04-25T05:24:35.588Z,1019.87
2018-04-25T05:26:20.707Z,1019.97
2018-04-25T05:27:21.289Z,1019.94
2018-04-25T05:28:21.868Z,1020.03
2018-04-25T05:29:22.441Z,1019.96
2018-04-25T05:31:07.786Z,1019.99
2018-04-25T05:32:08.380Z,1020.05
2018-04-25T05:33:08.985Z,1020.07
2018-04-25T05:34:09.565Z,1020.01
2018-04-25T05:35:54.653Z,1020.04
2018-04-25T05:36:55.232Z,1020.02
2018-04-25T05:37:55.810Z,1020.02
2018-04-25T05:38:56.389Z,1020.04
2018-04-25T05:40:41.477Z,1020.07
2018-04-25T05:41:42.054Z,1020.11
2018-04-25T05:42:42.630Z,1020.18
2018-04-25T05:43:43.213Z,1020.13
2018-04-25T05:45:28.342Z,1020.17
2018-04-25T05:46:28.920Z,1020.22
2018-04-25T05:47:29.497Z,1020.23
2018-04-25T05:48:30.077Z,1020.20
2018-04-25T05:50:15.265Z,1020.19
2018-04-25T05:51:15.844Z,1020.20
2018-04-25T05:52:16.420Z,1020.29
2018-04-25T05:53:16.997Z,1020.23
2018-04-25T05:55:02.186Z,1020.21
2018-04-25T05:56:02.817Z,1020.20
2018-04-25T05:57:03.397Z,1020.20
2018-04-25T05:58:03.971Z,1020.26
2018-04-25T05:59:49.062Z,1020.30
2018-04-25T06:00:49.640Z,1020.23
2018-04-25T06:01:50.217Z,1020.35
2018-04-25T06:02:50.797Z,1020.35
2018-04-25T06:04:35.885Z,1020.35
2018-04-25T06:05:36.514Z,1020.35
2018-04-25T06:06:37.091Z,1020.34
2018-04-25T06:07:37.669Z,1020.47
2018-04-25T06:09:22.759Z,1020.41
2018-04-25T06:10:23.344Z,1020.37
2018-04-25T06:11:23.915Z,1020.32
2018-04-25T06:12:24.547Z,1020.34
2018-04-25T06:14:09.683Z,1020.30
2018-04-25T06:15:10.260Z,1020.28
2018-04-25T06:16:10.837Z,1020.33
2018-04-25T06:17:11.415Z,1020.25
2018-04-25T06:18:56.505Z,1020.24
2018-04-25T06:19:57.083Z,1020.20
2018-04-25T06:20:57.672Z,1020.16
2018-04-25T06:21:58.245Z,1020.32
2018-04-25T06:23:43.387Z,1020.18
2018-04-25T06:24:44.151Z,1020.18
2018-04-25T06:25:44.729Z,1020.26
2018-04-25T06:26:45.306Z,1020.18
2018-04-25T06:28:30.401Z,1020.17
2018-04-25T06:29:30.986Z,1020.18
2018-04-25T06:30:31.601Z,1020.30
2018-04-25T06:31:32.179Z,1020.20
2018-04-25T06:33:17.275Z,1020.26
2018-04-25T06:34:17.854Z,1020.21
2018-04-25T06:35:18.429Z,1020.19
2018-04-25T06:36:19.008Z,1020.18
2018-04-25T06:38:04.147Z,1020.22
2018-04-25T06:39:04.726Z,1020.19
2018-04-25T06:40:05.354Z,1020.25
2018-04-25T06:41:05.932Z,1020.26
2018-04-25T06:42:51.023Z,1020.35
2018-04-25T06:43:51.600Z,1020.28
2018-04-25T06:44:52.251Z,1020.32
2018-04-25T06:45:52.754Z,1020.35
2018-04-25T06:47:37.895Z,1020.33
2018-04-25T06:48:38.472Z,1020.33
2018-04-25T06:49:39.048Z,1020.35
2018-04-25T06:50:39.713Z,1020.42
2018-04-25T06:52:24.714Z,1020.39
2018-04-25T06:53:25.292Z,1020.39
2018-04-25T06:54:25.876Z,1020.39
2018-04-25T06:55:26.448Z,1020.36
2018-04-25T06:57:11.539Z,1020.39
2018-04-25T06:58:12.266Z,1020.44
2018-04-25T06:59:12.844Z,1020.34
2018-04-25T07:00:13.421Z,1020.46
2018-04-25T07:01:58.563Z,1020.44
2018-04-25T07:02:59.142Z,1020.46
2018-04-25T07:03:59.722Z,1020.44
2018-04-25T07:05:00.299Z,1020.45
2018-04-25T07:06:45.393Z,1020.42
2018-04-25T07:07:45.968Z,1020.54
2018-04-25T07:08:46.545Z,1020.55
2018-04-25T07:09:47.127Z,1020.60
2018-04-25T07:11:32.255Z,1020.67
2018-04-25T07:12:32.834Z,1020.69
2018-04-25T07:13:33.411Z,1020.71
2018-04-25T07:14:33.988Z,1020.74
2018-04-25T07:16:19.242Z,1020.72
2018-04-25T07:17:19.807Z,1020.75
2018-04-25T07:18:20.434Z,1020.79
2018-04-25T07:19:21.062Z,1020.76
2018-04-25T07:21:06.201Z,1020.84
2018-04-25T07:22:06.821Z,1020.79
2018-04-25T07:23:07.398Z,1020.77
2018-04-25T07:24:07.975Z,1020.79
2018-04-25T07:25:53.063Z,1020.87
2018-04-25T07:26:53.642Z,1020.74
2018-04-25T07:27:54.220Z,1020.81
2018-04-25T07:28:54.797Z,1020.79
2018-04-25T07:30:39.888Z,1020.79
2018-04-25T07:31:40.467Z,1020.86
2018-04-25T07:32:41.042Z,1020.87
2018-04-25T07:33:41.621Z,1020.96
2018-04-25T07:35:26.863Z,1020.95
2018-04-25T07:36:27.467Z,1020.97
2018-04-25T07:37:28.096Z,1020.91
2018-04-25T07:38:28.671Z,1020.95
2018-04-25T07:40:13.761Z,1020.94
2018-04-25T07:41:14.338Z,1020.92
2018-04-25T07:42:14.914Z,1020.92
2018-04-25T07:43:15.492Z,1020.97
2018-04-25T07:45:00.583Z,1020.95
2018-04-25T07:46:01.160Z,1020.95
2018-04-25T07:47:01.738Z,1020.97
2018-04-25T07:48:02.317Z,1020.93
2018-04-25T07:49:47.412Z,1020.93
2018-04-25T07:50:48.046Z,1021.02
2018-04-25T07:51:48.627Z,1020.99
2018-04-25T07:52:49.210Z,1021.02
2018-04-25T07:54:34.305Z,1020.98
2018-04-25T07:55:34.887Z,1021.06
2018-04-25T07:56:35.470Z,1021.09
2018-04-25T07:57:36.172Z,1021.11
2018-04-25T07:59:21.196Z,1021.07
2018-04-25T08:00:21.928Z,1021.18
2018-04-25T08:01:22.511Z,1021.22
2018-04-25T08:02:23.092Z,1021.21
2018-04-25T08:04:08.191Z,1021.31
2018-04-25T08:05:08.812Z,1021.30
2018-04-25T08:06:09.394Z,1021.28
2018-04-25T08:07:09.975Z,1021.24
2018-04-25T08:08:55.274Z,1021.29
2018-04-25T08:09:55.905Z,1021.33
2018-04-25T08:10:56.487Z,1021.30
2018-04-25T08:11:57.069Z,1021.36
2018-04-25T08:13:42.213Z,1021.33
2018-04-25T08:14:42.795Z,1021.27
2018-04-25T08:15:43.380Z,1021.28
2018-04-25T08:16:43.961Z,1021.34
2018-04-25T08:18:29.097Z,1021.35
2018-04-25T08:19:29.641Z,1021.32
2018-04-25T08:20:30.222Z,1021.40
2018-04-25T08:21:30.805Z,1021.41
2018-04-25T08:23:15.900Z,1021.33
2018-04-25T08:24:16.485Z,1021.36
2018-04-25T08:25:17.067Z,1021.39
2018-04-25T08:26:17.843Z,1021.40
2018-04-25T08:28:02.985Z,1021.38
2018-04-25T08:29:03.568Z,1021.39
2018-04-25T08:30:04.200Z,1021.40
2018-04-25T08:31:04.783Z,1021.41
2018-04-25T08:32:49.881Z,1021.40
2018-04-25T08:33:50.467Z,1021.36
2018-04-25T08:34:51.048Z,1021.38
2018-04-25T08:35:51.629Z,1021.37
2018-04-25T08:37:36.827Z,1021.41
2018-04-25T08:38:37.408Z,1021.38
2018-04-25T08:39:37.993Z,1021.48
2018-04-25T08:40:38.584Z,1021.40
2018-04-25T08:42:23.672Z,1021.43
2018-04-25T08:43:24.253Z,1021.51
2018-04-25T08:44:24.836Z,1021.54
2018-04-25T08:45:25.466Z,1021.52
2018-04-25T08:47:10.564Z,1021.48
2018-04-25T08:48:11.198Z,1021.56
2018-04-25T08:49:11.780Z,1021.48
2018-04-25T08:50:12.362Z,1021.53
2018-04-25T08:51:57.509Z,1021.51
2018-04-25T08:52:58.093Z,1021.43
2018-04-25T08:53:58.675Z,1021.47
2018-04-25T08:54:59.256Z,1021.40
2018-04-25T08:56:44.355Z,1021.42
2018-04-25T08:57:44.937Z,1021.42
2018-04-25T08:58:45.520Z,1021.42
2018-04-25T08:59:46.102Z,1021.43
2018-04-25T09:01:31.200Z,1021.43
2018-04-25T09:02:31.786Z,1021.41
2018-04-25T09:03:32.417Z,1021.50
2018-04-25T09:04:33.050Z,1021.41
2018-04-25T09:06:18.197Z,1021.42
2018-04-25T09:07:18.783Z,1021.38
2018-04-25T09:08:19.367Z,1021.53
2018-04-25T09:09:19.949Z,1021.38
2018-04-25T09:11:05.048Z,1021.49
2018-04-25T09:12:05.633Z,1021.48
2018-04-25T09:13:06.239Z,1021.52
2018-04-25T09:14:06.797Z,1021.51
2018-04-25T09:15:51.898Z,1021.56
2018-04-25T09:16:52.481Z,1021.49
2018-04-25T09:17:53.063Z,1021.55
2018-04-25T09:18:53.646Z,1021.55
2018-04-25T09:20:38.795Z,1021.60
2018-04-25T09:21:39.377Z,1021.61
2018-04-25T09:22:39.960Z,1021.63
2018-04-25T09:23:40.592Z,1021.60
2018-04-25T09:25:25.741Z,1021.62
2018-04-25T09:26:26.325Z,1021.64
2018-04-25T09:27:26.912Z,1021.61
2018-04-25T09:28:27.494Z,1021.66
2018-04-25T09:30:12.593Z,1021.64
2018-04-25T09:31:13.175Z,1021.71
2018-04-25T09:32:13.758Z,1021.64
2018-04-25T09:33:14.342Z,1021.67
2018-04-25T09:34:59.443Z,1021.62
2018-04-25T09:36:00.029Z,1021.75
2018-04-25T09:37:00.612Z,1021.73
2018-04-25T09:38:01.246Z,1021.65
2018-04-25T09:39:46.394Z,1021.74
2018-04-25T09:40:46.979Z,1021.68
2018-04-25T09:41:47.562Z,1021.71
2018-04-25T09:42:48.145Z,1021.82
2018-04-25T09:44:33.295Z,1021.80
2018-04-25T09:45:33.883Z,1021.72
2018-04-25T09:46:34.464Z,1021.87
2018-04-25T09:47:35.048Z,1021.82
2018-04-25T09:49:20.147Z,1021.84
2018-04-25T09:50:20.732Z,1021.91
2018-04-25T09:51:21.319Z,1021.86
2018-04-25T09:52:21.941Z,1021.84
2018-04-25T09:54:07.049Z,1021.83
2018-04-25T09:55:07.630Z,1021.80
2018-04-25T09:56:08.214Z,1021.80
2018-04-25T09:57:09.449Z,1021.83
2018-04-25T09:58:54.597Z,1021.76
2018-04-25T09:59:55.183Z,1021.79
2018-04-25T10:00:55.766Z,1021.79
2018-04-25T10:01:56.351Z,1021.79
2018-04-25T10:03:41.451Z,1021.72
2018-04-25T10:04:42.038Z,1021.79
2018-04-25T10:05:42.621Z,1021.87
2018-04-25T10:06:43.207Z,1021.82
2018-04-25T10:08:28.406Z,1021.91
2018-04-25T10:09:28.990Z,1021.90
2018-04-25T10:10:29.574Z,1021.88
2018-04-25T10:11:30.158Z,1021.90
2018-04-25T10:13:15.257Z,1022.04
2018-04-25T10:14:15.843Z,1021.92
2018-04-25T10:15:16.507Z,1021.97
2018-04-25T10:16:17.014Z,1022.05
2018-04-25T10:18:02.120Z,1022.00
2018-04-25T10:19:02.777Z,1022.02
2018-04-25T10:20:03.337Z,1021.96
2018-04-25T10:21:03.921Z,1021.94
2018-04-25T10:22:49.020Z,1021.95
2018-04-25T10:23:49.663Z,1022.02
2018-04-25T10:24:50.242Z,1021.93
2018-04-25T10:25:50.826Z,1021.95
2018-04-25T10:27:35.930Z,1021.89
2018-04-25T10:28:36.513Z,1021.90
2018-04-25T10:29:37.097Z,1021.98
2018-04-25T10:30:37.682Z,1021.80
2018-04-25T10:32:22.832Z,1021.90
2018-04-25T10:33:23.418Z,1021.98
2018-04-25T10:34:24.004Z,1021.95
2018-04-25T10:35:24.590Z,1021.90
2018-04-25T10:37:09.693Z,1021.90
2018-04-25T10:38:10.278Z,1021.90
2018-04-25T10:39:10.913Z,1021.91
2018-04-25T10:40:11.547Z,1021.94
2018-04-25T10:41:56.646Z,1021.88
2018-04-25T10:42:57.233Z,1021.99
2018-04-25T10:43:57.816Z,1021.91
2018-04-25T10:44:58.405Z,1021.98
2018-04-25T10:46:43.596Z,1021.90
2018-04-25T10:47:44.180Z,1021.92
2018-04-25T10:48:44.768Z,1021.93
2018-04-25T10:49:45.402Z,1022.03
2018-04-25T10:51:30.502Z,1021.95
2018-04-25T10:52:31.090Z,1021.95
2018-04-25T10:53:31.675Z,1021.98
2018-04-25T10:54:32.265Z,1022.03
2018-04-25T10:56:17.364Z,1021.98
2018-04-25T10:57:17.952Z,1022.07
2018-04-25T10:58:18.537Z,1022.08
2018-04-25T10:59:19.274Z,1022.12
2018-04-25T11:01:04.426Z,1022.06
2018-04-25T11:02:05.012Z,1022.05
2018-04-25T11:03:05.599Z,1021.96
2018-04-25T11:04:06.187Z,1022.03
2018-04-25T11:05:51.339Z,1021.98
2018-04-25T11:06:51.926Z,1022.01
2018-04-25T11:07:52.518Z,1022.00
2018-04-25T11:08:53.105Z,1022.06
2018-04-25T11:10:38.258Z,1022.00
2018-04-25T11:11:38.847Z,1021.96
2018-04-25T11:12:39.439Z,1022.05
2018-04-25T11:15:26.127Z,1021.94
2018-04-25T11:16:26.871Z,1021.85
2018-04-25T11:17:27.504Z,1021.84
2018-04-25T11:18:28.146Z,1021.84
2018-04-25T11:20:13.253Z,1021.83
2018-04-25T11:21:13.847Z,1021.81
2018-04-25T11:22:14.438Z,1021.85
2018-04-25T11:23:15.032Z,1021.90
2018-04-25T11:25:00.140Z,1021.75
2018-04-25T11:26:00.784Z,1021.77
2018-04-25T11:27:01.374Z,1021.81
2018-04-25T11:28:01.967Z,1021.75
2018-04-25T11:29:47.072Z,1021.84
2018-04-25T11:30:47.866Z,1021.81
2018-04-25T11:32:02.224Z,1021.85
2018-04-25T11:33:02.867Z,1021.85
2018-04-25T11:34:03.460Z,1021.78
2018-04-25T11:35:04.052Z,1021.81
2018-04-25T11:36:49.259Z,1021.82
2018-04-25T11:37:49.853Z,1021.76
2018-04-25T11:38:50.444Z,1021.75
2018-04-25T11:39:51.042Z,1021.82
2018-04-25T11:41:36.145Z,1021.68
2018-04-25T11:42:36.740Z,1021.74
2018-04-25T11:43:37.332Z,1021.73
2018-04-25T11:44:37.925Z,1021.77
2018-04-25T11:46:23.033Z,1021.78
2018-04-25T11:47:23.628Z,1021.78
2018-04-25T11:48:24.220Z,1021.69
2018-04-25T11:49:24.823Z,1021.71
2018-04-25T11:51:10.026Z,1021.75
2018-04-25T11:52:10.617Z,1021.74
2018-04-25T11:53:11.213Z,1021.66
2018-04-25T11:55:57.902Z,1021.71
2018-04-25T11:56:58.501Z,1021.74
2018-04-25T11:57:59.147Z,1021.73
2018-04-25T11:58:59.742Z,1021.69
2018-04-25T12:00:44.853Z,1021.69
2018-04-25T12:01:45.448Z,1021.69
2018-04-25T12:02:46.083Z,1021.79
2018-04-25T12:03:46.639Z,1021.72
2018-04-25T12:05:31.749Z,1021.66
2018-04-25T12:06:32.396Z,1021.65
2018-04-25T12:07:32.992Z,1021.67
2018-04-25T12:08:33.639Z,1021.68
2018-04-25T12:10:18.753Z,1021.66
2018-04-25T12:11:19.346Z,1021.68
2018-04-25T12:12:19.952Z,1021.52
2018-04-25T12:13:20.765Z,1021.55
2018-04-25T12:15:05.797Z,1021.56
2018-04-25T12:16:06.394Z,1021.46
2018-04-25T12:17:06.988Z,1021.55
2018-04-25T12:18:07.584Z,1021.60
2018-04-25T12:19:52.698Z,1021.57
2018-04-25T12:20:53.297Z,1021.59
2018-04-25T12:21:53.889Z,1021.60
2018-04-25T12:25:45.983Z,1021.52
2018-04-25T12:26:46.571Z,1021.52
2018-04-25T12:27:47.161Z,1021.50
2018-04-25T12:28:47.749Z,1021.54
2018-04-25T12:30:32.785Z,1021.52
2018-04-25T12:31:33.384Z,1021.41
2018-04-25T12:35:43.037Z,1021.35
2018-04-25T12:36:43.626Z,1021.39
2018-04-25T12:37:44.420Z,1021.34
2018-04-25T12:40:31.126Z,1021.42
2018-04-25T12:41:31.730Z,1021.40
2018-04-25T12:42:32.317Z,1021.40
2018-04-25T12:43:32.917Z,1021.43
2018-04-25T12:45:18.078Z,1021.42
2018-04-25T12:46:18.680Z,1021.35
2018-04-25T12:47:19.366Z,1021.48
2018-04-25T12:48:19.908Z,1021.37
2018-04-25T12:51:06.654Z,1021.37
2018-04-25T12:52:07.245Z,1021.35
2018-04-25T12:53:07.835Z,1021.46
2018-04-25T12:54:52.949Z,1021.33
2018-04-25T12:55:53.549Z,1021.38
2018-04-25T12:56:54.147Z,1021.30
2018-04-25T12:57:54.794Z,1021.33
2018-04-25T12:59:39.909Z,1021.28
2018-04-25T13:00:40.508Z,1021.25
2018-04-25T13:01:41.197Z,1021.30
2018-04-25T13:02:41.752Z,1021.26
2018-04-25T13:04:26.867Z,1021.16
2018-04-25T13:05:27.466Z,1021.18
2018-04-25T13:06:28.065Z,1021.09
2018-04-25T13:07:28.663Z,1021.10
2018-04-25T13:09:13.867Z,1021.16
2018-04-25T13:10:14.463Z,1021.16
2018-04-25T13:11:15.113Z,1021.20
2018-04-25T13:12:15.710Z,1021.22
2018-04-25T13:14:00.823Z,1021.15
2018-04-25T13:15:01.502Z,1021.20
2018-04-25T13:16:02.071Z,1021.08
2018-04-25T13:17:02.668Z,1021.05
2018-04-25T13:18:47.832Z,1020.98
2018-04-25T13:19:48.431Z,1020.99
2018-04-25T13:20:49.029Z,1020.99
2018-04-25T13:21:49.626Z,1021.02
2018-04-25T13:23:34.790Z,1020.98
2018-04-25T13:24:40.443Z,1020.91
2018-04-25T13:25:41.040Z,1021.05
2018-04-25T13:26:41.639Z,1021.05
2018-04-25T13:28:26.752Z,1021.00
2018-04-25T13:29:27.407Z,1020.92
2018-04-25T13:30:28.050Z,1021.08
2018-04-25T13:31:28.649Z,1021.05
2018-04-25T13:33:13.763Z,1020.93
2018-04-25T13:34:14.362Z,1020.90
2018-04-25T13:35:14.960Z,1020.79
2018-04-25T13:36:15.558Z,1020.83
2018-04-25T13:38:00.672Z,1020.93
2018-04-25T13:39:01.422Z,1020.88
2018-04-25T13:40:02.022Z,1020.88
2018-04-25T13:41:02.662Z,1020.82
2018-04-25T13:42:47.773Z,1020.79
2018-04-25T13:43:48.373Z,1020.92
2018-04-25T13:44:48.972Z,1020.87
2018-04-25T13:45:49.617Z,1020.92
2018-04-25T13:47:34.730Z,1020.90
2018-04-25T13:48:35.331Z,1020.89
2018-04-25T13:49:35.966Z,1020.81
2018-04-25T13:50:36.714Z,1020.91
2018-04-25T13:52:21.826Z,1020.87
2018-04-25T13:53:22.429Z,1020.87
2018-04-25T13:54:23.022Z,1020.89
2018-04-25T13:55:23.668Z,1020.84
2018-04-25T13:57:08.784Z,1020.93
2018-04-25T13:58:09.432Z,1020.89
2018-04-25T13:59:10.032Z,1020.91
2018-04-25T14:00:10.629Z,1020.80
2018-04-25T14:01:55.744Z,1020.89
2018-04-25T14:02:56.344Z,1020.77
2018-04-25T14:03:56.944Z,1020.86
2018-04-25T14:04:57.540Z,1020.88
2018-04-25T14:06:42.708Z,1020.77
2018-04-25T14:07:43.301Z,1020.85
2018-04-25T14:08:43.903Z,1020.71
2018-04-25T14:09:44.501Z,1020.71
2018-04-25T14:11:29.679Z,1020.70
2018-04-25T14:12:30.306Z,1020.62
2018-04-25T14:13:30.904Z,1020.75
2018-04-25T14:14:31.505Z,1020.60
2018-04-25T14:16:16.616Z,1020.59
2018-04-25T14:17:17.214Z,1020.53
2018-04-25T14:18:17.863Z,1020.44
2018-04-25T14:19:18.461Z,1020.48
2018-04-25T14:21:03.575Z,1020.39
2018-04-25T14:22:04.178Z,1020.49
2018-04-25T14:23:04.773Z,1020.37
2018-04-25T14:24:05.375Z,1020.30
2018-04-25T14:25:50.534Z,1020.34
2018-04-25T14:26:51.132Z,1020.31
2018-04-25T14:27:51.729Z,1020.24
2018-04-25T14:28:52.329Z,1020.35
2018-04-25T14:30:37.444Z,1020.23
2018-04-25T14:31:38.043Z,1020.31
2018-04-25T14:32:38.690Z,1020.34
2018-04-25T14:33:39.285Z,1020.35
2018-04-25T14:35:24.398Z,1020.31
2018-04-25T14:36:24.995Z,1020.34
2018-04-25T14:37:25.593Z,1020.29